sensor_id;sensor_type;location;lat;lon;timestamp;P1;durP1;ratioP1;P2;durP2;ratioP2
57389;SDS011;43217;52.694;6.214;2022-07-23T00:00:49;4.90;;;4.10;;
57389;SDS011;43217;52.694;6.214;2022-07-23T00:03:14;4.57;;;4.18;;
57389;SDS011;43217;52.694;6.214;2022-07-23T00:05:40;4.30;;;3.85;;
57389;SDS011;43217;52.694;6.214;2022-07-23T00:08:06;5.15;;;3.92;;
57389;SDS011;43217;52.694;6.214;2022-07-23T00:10:32;4.50;;;4.13;;
57389;SDS011;43217;52.694;6.214;2022-07-23T00:12:59;4.50;;;4.10;;
57389;SDS011;43217;52.694;6.214;2022-07-23T00:15:24;4.18;;;3.78;;
57389;SDS011;43217;52.694;6.214;2022-07-23T00:17:50;4.97;;;4.00;;
57389;SDS011;43217;52.694;6.214;2022-07-23T00:20:16;5.43;;;4.10;;
57389;SDS011;43217;52.694;6.214;2022-07-23T00:25:13;4.75;;;4.40;;
57389;SDS011;43217;52.694;6.214;2022-07-23T00:27:39;4.55;;;4.15;;
57389;SDS011;43217;52.694;6.214;2022-07-23T00:30:05;4.53;;;4.13;;
57389;SDS011;43217;52.694;6.214;2022-07-23T00:32:31;4.15;;;3.80;;
57389;SDS011;43217;52.694;6.214;2022-07-23T00:34:56;4.70;;;4.20;;
57389;SDS011;43217;52.694;6.214;2022-07-23T00:37:22;3.95;;;3.60;;
57389;SDS011;43217;52.694;6.214;2022-07-23T00:39:48;4.97;;;4.53;;
57389;SDS011;43217;52.694;6.214;2022-07-23T00:42:13;4.47;;;4.13;;
57389;SDS011;43217;52.694;6.214;2022-07-23T00:44:39;5.78;;;4.32;;
57389;SDS011;43217;52.694;6.214;2022-07-23T00:47:04;6.78;;;4.72;;
57389;SDS011;43217;52.694;6.214;2022-07-23T00:49:31;4.80;;;4.28;;
57389;SDS011;43217;52.694;6.214;2022-07-23T00:51:57;5.15;;;4.65;;
57389;SDS011;43217;52.694;6.214;2022-07-23T00:54:27;4.78;;;4.38;;
57389;SDS011;43217;52.694;6.214;2022-07-23T00:56:53;4.82;;;4.03;;
57389;SDS011;43217;52.694;6.214;2022-07-23T00:59:19;4.28;;;3.70;;
57389;SDS011;43217;52.694;6.214;2022-07-23T01:01:44;4.75;;;4.07;;
57389;SDS011;43217;52.694;6.214;2022-07-23T01:04:12;4.32;;;3.88;;
57389;SDS011;43217;52.694;6.214;2022-07-23T01:06:40;4.72;;;4.00;;
57389;SDS011;43217;52.694;6.214;2022-07-23T01:09:06;4.55;;;4.15;;
57389;SDS011;43217;52.694;6.214;2022-07-23T01:11:33;5.07;;;4.50;;
57389;SDS011;43217;52.694;6.214;2022-07-23T01:14:07;4.47;;;4.05;;
57389;SDS011;43217;52.694;6.214;2022-07-23T01:16:37;5.15;;;4.75;;
57389;SDS011;43217;52.694;6.214;2022-07-23T01:19:02;5.10;;;4.60;;
57389;SDS011;43217;52.694;6.214;2022-07-23T01:21:31;4.40;;;4.00;;
57389;SDS011;43217;52.694;6.214;2022-07-23T01:23:59;4.70;;;4.13;;
57389;SDS011;43217;52.694;6.214;2022-07-23T01:26:25;4.53;;;4.20;;
57389;SDS011;43217;52.694;6.214;2022-07-23T01:28:50;5.63;;;4.80;;
57389;SDS011;43217;52.694;6.214;2022-07-23T01:31:16;4.55;;;4.15;;
57389;SDS011;43217;52.694;6.214;2022-07-23T01:33:42;4.93;;;4.53;;
57389;SDS011;43217;52.694;6.214;2022-07-23T01:36:08;5.90;;;4.53;;
57389;SDS011;43217;52.694;6.214;2022-07-23T01:38:34;4.55;;;4.10;;
57389;SDS011;43217;52.694;6.214;2022-07-23T01:41:00;4.68;;;4.28;;
57389;SDS011;43217;52.694;6.214;2022-07-23T01:43:25;5.50;;;4.82;;
57389;SDS011;43217;52.694;6.214;2022-07-23T01:45:51;5.10;;;4.55;;
57389;SDS011;43217;52.694;6.214;2022-07-23T01:48:16;5.20;;;4.20;;
57389;SDS011;43217;52.694;6.214;2022-07-23T01:50:42;5.22;;;4.22;;
57389;SDS011;43217;52.694;6.214;2022-07-23T01:53:08;4.88;;;4.38;;
57389;SDS011;43217;52.694;6.214;2022-07-23T01:55:33;4.93;;;4.45;;
57389;SDS011;43217;52.694;6.214;2022-07-23T01:57:59;4.70;;;4.30;;
57389;SDS011;43217;52.694;6.214;2022-07-23T02:00:24;5.43;;;4.85;;
57389;SDS011;43217;52.694;6.214;2022-07-23T02:02:50;5.25;;;4.75;;
57389;SDS011;43217;52.694;6.214;2022-07-23T02:05:15;5.55;;;4.32;;
57389;SDS011;43217;52.694;6.214;2022-07-23T02:07:41;4.82;;;4.43;;
57389;SDS011;43217;52.694;6.214;2022-07-23T02:10:07;5.22;;;4.82;;
57389;SDS011;43217;52.694;6.214;2022-07-23T02:12:33;5.50;;;5.07;;
57389;SDS011;43217;52.694;6.214;2022-07-23T02:14:59;5.43;;;4.93;;
57389;SDS011;43217;52.694;6.214;2022-07-23T02:17:24;5.30;;;4.90;;
57389;SDS011;43217;52.694;6.214;2022-07-23T02:19:50;5.32;;;4.88;;
57389;SDS011;43217;52.694;6.214;2022-07-23T02:22:15;4.95;;;4.45;;
57389;SDS011;43217;52.694;6.214;2022-07-23T02:24:41;4.82;;;4.45;;
57389;SDS011;43217;52.694;6.214;2022-07-23T02:27:07;4.53;;;4.22;;
57389;SDS011;43217;52.694;6.214;2022-07-23T02:29:32;4.95;;;4.57;;
57389;SDS011;43217;52.694;6.214;2022-07-23T02:31:58;5.55;;;5.05;;
57389;SDS011;43217;52.694;6.214;2022-07-23T02:34:23;5.00;;;4.60;;
57389;SDS011;43217;52.694;6.214;2022-07-23T02:36:49;5.13;;;4.63;;
57389;SDS011;43217;52.694;6.214;2022-07-23T02:39:14;5.00;;;4.50;;
57389;SDS011;43217;52.694;6.214;2022-07-23T02:41:40;5.88;;;4.90;;
57389;SDS011;43217;52.694;6.214;2022-07-23T02:44:05;4.82;;;4.40;;
57389;SDS011;43217;52.694;6.214;2022-07-23T02:46:31;5.03;;;4.63;;
57389;SDS011;43217;52.694;6.214;2022-07-23T02:48:57;5.15;;;4.72;;
57389;SDS011;43217;52.694;6.214;2022-07-23T02:51:22;5.38;;;4.88;;
57389;SDS011;43217;52.694;6.214;2022-07-23T02:53:48;5.45;;;4.88;;
57389;SDS011;43217;52.694;6.214;2022-07-23T02:56:14;5.57;;;4.65;;
57389;SDS011;43217;52.694;6.214;2022-07-23T02:58:39;6.22;;;5.63;;
57389;SDS011;43217;52.694;6.214;2022-07-23T03:01:05;5.50;;;5.10;;
57389;SDS011;43217;52.694;6.214;2022-07-23T03:03:30;6.20;;;5.05;;
57389;SDS011;43217;52.694;6.214;2022-07-23T03:05:56;5.20;;;4.80;;
57389;SDS011;43217;52.694;6.214;2022-07-23T03:08:22;5.97;;;5.00;;
57389;SDS011;43217;52.694;6.214;2022-07-23T03:10:47;5.15;;;4.68;;
57389;SDS011;43217;52.694;6.214;2022-07-23T03:13:13;6.00;;;4.65;;
57389;SDS011;43217;52.694;6.214;2022-07-23T03:15:38;5.30;;;4.80;;
57389;SDS011;43217;52.694;6.214;2022-07-23T03:18:04;4.88;;;4.47;;
57389;SDS011;43217;52.694;6.214;2022-07-23T03:20:30;5.60;;;4.75;;
57389;SDS011;43217;52.694;6.214;2022-07-23T03:22:55;5.53;;;5.13;;
57389;SDS011;43217;52.694;6.214;2022-07-23T03:25:21;7.57;;;4.75;;
57389;SDS011;43217;52.694;6.214;2022-07-23T03:27:46;5.47;;;4.50;;
57389;SDS011;43217;52.694;6.214;2022-07-23T03:30:12;5.10;;;4.70;;
57389;SDS011;43217;52.694;6.214;2022-07-23T03:32:38;4.55;;;4.20;;
57389;SDS011;43217;52.694;6.214;2022-07-23T03:35:03;4.57;;;4.20;;
57389;SDS011;43217;52.694;6.214;2022-07-23T03:37:29;5.25;;;4.78;;
57389;SDS011;43217;52.694;6.214;2022-07-23T03:39:55;5.80;;;4.90;;
57389;SDS011;43217;52.694;6.214;2022-07-23T03:42:22;5.00;;;4.60;;
57389;SDS011;43217;52.694;6.214;2022-07-23T03:44:47;3.80;;;3.50;;
57389;SDS011;43217;52.694;6.214;2022-07-23T03:47:13;3.20;;;2.90;;
57389;SDS011;43217;52.694;6.214;2022-07-23T03:49:39;3.72;;;3.40;;
57389;SDS011;43217;52.694;6.214;2022-07-23T03:52:04;3.50;;;3.20;;
57389;SDS011;43217;52.694;6.214;2022-07-23T03:54:30;4.00;;;3.05;;
57389;SDS011;43217;52.694;6.214;2022-07-23T03:56:56;4.38;;;3.70;;
57389;SDS011;43217;52.694;6.214;2022-07-23T03:59:21;3.50;;;3.20;;
57389;SDS011;43217;52.694;6.214;2022-07-23T04:01:47;3.80;;;3.50;;
57389;SDS011;43217;52.694;6.214;2022-07-23T04:04:12;3.75;;;3.45;;
57389;SDS011;43217;52.694;6.214;2022-07-23T04:06:38;3.70;;;3.40;;
57389;SDS011;43217;52.694;6.214;2022-07-23T04:09:03;4.00;;;3.60;;
57389;SDS011;43217;52.694;6.214;2022-07-23T04:11:29;3.70;;;3.30;;
57389;SDS011;43217;52.694;6.214;2022-07-23T04:13:55;3.58;;;3.28;;
57389;SDS011;43217;52.694;6.214;2022-07-23T04:16:20;3.60;;;3.25;;
57389;SDS011;43217;52.694;6.214;2022-07-23T04:18:46;3.70;;;3.40;;
57389;SDS011;43217;52.694;6.214;2022-07-23T04:21:12;4.00;;;3.60;;
57389;SDS011;43217;52.694;6.214;2022-07-23T04:23:37;3.53;;;3.33;;
57389;SDS011;43217;52.694;6.214;2022-07-23T04:26:03;3.72;;;3.42;;
57389;SDS011;43217;52.694;6.214;2022-07-23T04:28:29;3.72;;;3.33;;
57389;SDS011;43217;52.694;6.214;2022-07-23T04:30:57;3.65;;;3.35;;
57389;SDS011;43217;52.694;6.214;2022-07-23T04:33:24;3.75;;;3.45;;
57389;SDS011;43217;52.694;6.214;2022-07-23T04:35:50;3.72;;;3.45;;
57389;SDS011;43217;52.694;6.214;2022-07-23T04:38:16;3.85;;;3.47;;
57389;SDS011;43217;52.694;6.214;2022-07-23T04:40:41;3.08;;;2.75;;
57389;SDS011;43217;52.694;6.214;2022-07-23T04:43:07;2.67;;;2.47;;
57389;SDS011;43217;52.694;6.214;2022-07-23T04:45:33;2.72;;;2.53;;
57389;SDS011;43217;52.694;6.214;2022-07-23T04:47:58;2.42;;;2.22;;
57389;SDS011;43217;52.694;6.214;2022-07-23T04:50:24;2.70;;;2.50;;
57389;SDS011;43217;52.694;6.214;2022-07-23T04:52:50;2.88;;;2.67;;
57389;SDS011;43217;52.694;6.214;2022-07-23T04:55:16;3.10;;;2.80;;
57389;SDS011;43217;52.694;6.214;2022-07-23T04:57:41;3.15;;;2.70;;
57389;SDS011;43217;52.694;6.214;2022-07-23T05:00:07;3.00;;;2.75;;
57389;SDS011;43217;52.694;6.214;2022-07-23T05:02:34;2.83;;;2.63;;
57389;SDS011;43217;52.694;6.214;2022-07-23T05:04:59;4.50;;;3.15;;
57389;SDS011;43217;52.694;6.214;2022-07-23T05:07:25;3.92;;;3.63;;
57389;SDS011;43217;52.694;6.214;2022-07-23T05:09:50;5.13;;;3.90;;
57389;SDS011;43217;52.694;6.214;2022-07-23T05:12:16;3.95;;;3.10;;
57389;SDS011;43217;52.694;6.214;2022-07-23T05:14:42;4.18;;;3.63;;
57389;SDS011;43217;52.694;6.214;2022-07-23T05:17:07;3.95;;;3.50;;
57389;SDS011;43217;52.694;6.214;2022-07-23T05:19:34;4.60;;;3.80;;
57389;SDS011;43217;52.694;6.214;2022-07-23T05:21:59;5.30;;;4.30;;
57389;SDS011;43217;52.694;6.214;2022-07-23T05:24:25;6.18;;;4.47;;
57389;SDS011;43217;52.694;6.214;2022-07-23T05:26:51;4.95;;;4.20;;
57389;SDS011;43217;52.694;6.214;2022-07-23T05:29:16;5.00;;;4.50;;
57389;SDS011;43217;52.694;6.214;2022-07-23T05:31:42;5.47;;;4.50;;
57389;SDS011;43217;52.694;6.214;2022-07-23T05:34:08;5.28;;;4.30;;
57389;SDS011;43217;52.694;6.214;2022-07-23T05:36:33;5.15;;;4.40;;
57389;SDS011;43217;52.694;6.214;2022-07-23T05:38:59;4.78;;;3.95;;
57389;SDS011;43217;52.694;6.214;2022-07-23T05:41:24;5.75;;;3.65;;
57389;SDS011;43217;52.694;6.214;2022-07-23T05:43:50;5.57;;;3.83;;
57389;SDS011;43217;52.694;6.214;2022-07-23T05:46:16;5.15;;;3.75;;
57389;SDS011;43217;52.694;6.214;2022-07-23T05:48:41;5.35;;;3.50;;
57389;SDS011;43217;52.694;6.214;2022-07-23T05:51:07;5.05;;;3.17;;
57389;SDS011;43217;52.694;6.214;2022-07-23T05:53:34;4.38;;;3.40;;
57389;SDS011;43217;52.694;6.214;2022-07-23T05:56:00;4.72;;;3.30;;
57389;SDS011;43217;52.694;6.214;2022-07-23T05:58:26;4.07;;;3.42;;
57389;SDS011;43217;52.694;6.214;2022-07-23T06:00:52;5.00;;;3.25;;
57389;SDS011;43217;52.694;6.214;2022-07-23T06:03:17;3.38;;;3.08;;
57389;SDS011;43217;52.694;6.214;2022-07-23T06:05:43;4.25;;;3.15;;
57389;SDS011;43217;52.694;6.214;2022-07-23T06:08:08;3.35;;;2.72;;
57389;SDS011;43217;52.694;6.214;2022-07-23T06:10:34;3.20;;;2.42;;
57389;SDS011;43217;52.694;6.214;2022-07-23T06:13:00;4.55;;;2.90;;
57389;SDS011;43217;52.694;6.214;2022-07-23T06:15:25;3.63;;;2.10;;
57389;SDS011;43217;52.694;6.214;2022-07-23T06:17:51;3.83;;;2.17;;
57389;SDS011;43217;52.694;6.214;2022-07-23T06:20:17;3.30;;;2.20;;
57389;SDS011;43217;52.694;6.214;2022-07-23T06:22:42;3.50;;;2.40;;
57389;SDS011;43217;52.694;6.214;2022-07-23T06:25:08;3.75;;;2.47;;
57389;SDS011;43217;52.694;6.214;2022-07-23T06:27:34;4.05;;;2.45;;
57389;SDS011;43217;52.694;6.214;2022-07-23T06:29:59;3.28;;;2.35;;
57389;SDS011;43217;52.694;6.214;2022-07-23T06:32:25;2.55;;;2.05;;
57389;SDS011;43217;52.694;6.214;2022-07-23T06:34:51;1.88;;;1.63;;
57389;SDS011;43217;52.694;6.214;2022-07-23T06:37:16;3.42;;;1.70;;
57389;SDS011;43217;52.694;6.214;2022-07-23T06:39:42;2.70;;;1.70;;
57389;SDS011;43217;52.694;6.214;2022-07-23T06:42:07;3.00;;;1.48;;
57389;SDS011;43217;52.694;6.214;2022-07-23T06:44:35;3.28;;;1.42;;
57389;SDS011;43217;52.694;6.214;2022-07-23T06:47:00;2.10;;;1.30;;
57389;SDS011;43217;52.694;6.214;2022-07-23T06:49:26;1.60;;;1.40;;
57389;SDS011;43217;52.694;6.214;2022-07-23T06:51:52;2.75;;;1.38;;
57389;SDS011;43217;52.694;6.214;2022-07-23T06:54:17;1.55;;;1.00;;
57389;SDS011;43217;52.694;6.214;2022-07-23T06:56:43;2.40;;;1.20;;
57389;SDS011;43217;52.694;6.214;2022-07-23T06:59:09;2.20;;;1.30;;
57389;SDS011;43217;52.694;6.214;2022-07-23T07:01:34;2.25;;;1.20;;
57389;SDS011;43217;52.694;6.214;2022-07-23T07:04:00;1.13;;;0.80;;
57389;SDS011;43217;52.694;6.214;2022-07-23T07:06:26;1.98;;;1.10;;
57389;SDS011;43217;52.694;6.214;2022-07-23T07:08:51;2.03;;;1.00;;
57389;SDS011;43217;52.694;6.214;2022-07-23T07:11:17;2.30;;;1.20;;
57389;SDS011;43217;52.694;6.214;2022-07-23T07:13:42;1.55;;;0.88;;
57389;SDS011;43217;52.694;6.214;2022-07-23T07:16:08;1.30;;;0.80;;
57389;SDS011;43217;52.694;6.214;2022-07-23T07:18:34;1.23;;;0.80;;
57389;SDS011;43217;52.694;6.214;2022-07-23T07:20:59;0.80;;;0.73;;
57389;SDS011;43217;52.694;6.214;2022-07-23T07:23:25;2.50;;;1.58;;
57389;SDS011;43217;52.694;6.214;2022-07-23T07:25:50;1.13;;;0.70;;
57389;SDS011;43217;52.694;6.214;2022-07-23T07:28:16;1.77;;;0.60;;
57389;SDS011;43217;52.694;6.214;2022-07-23T07:30:42;2.07;;;0.80;;
57389;SDS011;43217;52.694;6.214;2022-07-23T07:33:07;1.27;;;0.87;;
57389;SDS011;43217;52.694;6.214;2022-07-23T07:35:33;2.43;;;1.17;;
57389;SDS011;43217;52.694;6.214;2022-07-23T07:37:59;1.50;;;1.07;;
57389;SDS011;43217;52.694;6.214;2022-07-23T07:40:25;1.63;;;0.98;;
57389;SDS011;43217;52.694;6.214;2022-07-23T07:42:51;1.20;;;0.93;;
57389;SDS011;43217;52.694;6.214;2022-07-23T07:45:21;1.27;;;0.80;;
57389;SDS011;43217;52.694;6.214;2022-07-23T07:47:48;1.05;;;0.90;;
57389;SDS011;43217;52.694;6.214;2022-07-23T07:50:14;1.27;;;1.00;;
57389;SDS011;43217;52.694;6.214;2022-07-23T07:52:40;1.80;;;1.20;;
57389;SDS011;43217;52.694;6.214;2022-07-23T07:55:07;1.33;;;0.80;;
57389;SDS011;43217;52.694;6.214;2022-07-23T07:57:34;1.80;;;1.10;;
57389;SDS011;43217;52.694;6.214;2022-07-23T07:59:59;1.80;;;1.20;;
57389;SDS011;43217;52.694;6.214;2022-07-23T08:02:25;1.23;;;1.10;;
57389;SDS011;43217;52.694;6.214;2022-07-23T08:04:51;2.42;;;0.85;;
57389;SDS011;43217;52.694;6.214;2022-07-23T08:07:17;2.03;;;1.00;;
57389;SDS011;43217;52.694;6.214;2022-07-23T08:09:43;1.48;;;1.10;;
57389;SDS011;43217;52.694;6.214;2022-07-23T08:12:08;1.65;;;1.00;;
57389;SDS011;43217;52.694;6.214;2022-07-23T08:14:34;1.48;;;0.75;;
57389;SDS011;43217;52.694;6.214;2022-07-23T08:17:00;1.85;;;0.98;;
57389;SDS011;43217;52.694;6.214;2022-07-23T08:19:25;0.70;;;0.50;;
57389;SDS011;43217;52.694;6.214;2022-07-23T08:21:51;0.75;;;0.63;;
57389;SDS011;43217;52.694;6.214;2022-07-23T08:24:17;1.70;;;0.65;;
57389;SDS011;43217;52.694;6.214;2022-07-23T08:26:42;1.27;;;0.70;;
57389;SDS011;43217;52.694;6.214;2022-07-23T08:29:08;1.38;;;0.60;;
57389;SDS011;43217;52.694;6.214;2022-07-23T08:31:33;1.15;;;0.60;;
57389;SDS011;43217;52.694;6.214;2022-07-23T08:33:59;1.98;;;0.70;;
57389;SDS011;43217;52.694;6.214;2022-07-23T08:36:25;2.55;;;0.60;;
57389;SDS011;43217;52.694;6.214;2022-07-23T08:38:53;1.92;;;0.80;;
57389;SDS011;43217;52.694;6.214;2022-07-23T08:41:19;1.52;;;0.63;;
57389;SDS011;43217;52.694;6.214;2022-07-23T08:43:45;1.20;;;0.70;;
57389;SDS011;43217;52.694;6.214;2022-07-23T08:46:11;1.60;;;0.70;;
57389;SDS011;43217;52.694;6.214;2022-07-23T08:48:38;0.95;;;0.63;;
57389;SDS011;43217;52.694;6.214;2022-07-23T08:51:04;0.63;;;0.63;;
57389;SDS011;43217;52.694;6.214;2022-07-23T08:53:32;0.82;;;0.70;;
57389;SDS011;43217;52.694;6.214;2022-07-23T08:56:00;1.80;;;0.70;;
57389;SDS011;43217;52.694;6.214;2022-07-23T08:58:27;0.50;;;0.50;;
57389;SDS011;43217;52.694;6.214;2022-07-23T09:00:53;0.60;;;0.37;;
57389;SDS011;43217;52.694;6.214;2022-07-23T09:03:23;1.23;;;0.50;;
57389;SDS011;43217;52.694;6.214;2022-07-23T09:05:51;1.17;;;0.50;;
57389;SDS011;43217;52.694;6.214;2022-07-23T09:08:21;1.33;;;0.60;;
57389;SDS011;43217;52.694;6.214;2022-07-23T09:10:59;0.40;;;0.40;;
57389;SDS011;43217;52.694;6.214;2022-07-23T09:13:27;0.95;;;0.57;;
57389;SDS011;43217;52.694;6.214;2022-07-23T09:16:06;1.52;;;0.52;;
57389;SDS011;43217;52.694;6.214;2022-07-23T09:18:39;0.80;;;0.63;;
57389;SDS011;43217;52.694;6.214;2022-07-23T09:23:56;0.63;;;0.50;;
57389;SDS011;43217;52.694;6.214;2022-07-23T09:26:28;1.00;;;0.88;;
57389;SDS011;43217;52.694;6.214;2022-07-23T09:36:51;1.48;;;0.50;;
57389;SDS011;43217;52.694;6.214;2022-07-23T09:39:24;1.15;;;0.50;;
57389;SDS011;43217;52.694;6.214;2022-07-23T09:41:52;0.60;;;0.60;;
57389;SDS011;43217;52.694;6.214;2022-07-23T09:44:19;0.63;;;0.60;;
57389;SDS011;43217;52.694;6.214;2022-07-23T09:46:46;1.10;;;0.80;;
57389;SDS011;43217;52.694;6.214;2022-07-23T09:49:21;0.98;;;0.70;;
57389;SDS011;43217;52.694;6.214;2022-07-23T09:51:59;1.00;;;0.80;;
57389;SDS011;43217;52.694;6.214;2022-07-23T09:56:57;1.92;;;0.70;;
57389;SDS011;43217;52.694;6.214;2022-07-23T09:59:25;0.60;;;0.60;;
57389;SDS011;43217;52.694;6.214;2022-07-23T10:01:54;1.38;;;0.77;;
57389;SDS011;43217;52.694;6.214;2022-07-23T10:04:22;0.98;;;0.60;;
57389;SDS011;43217;52.694;6.214;2022-07-23T10:06:50;0.95;;;0.63;;
57389;SDS011;43217;52.694;6.214;2022-07-23T10:09:20;1.00;;;1.00;;
57389;SDS011;43217;52.694;6.214;2022-07-23T10:11:53;1.25;;;0.70;;
57389;SDS011;43217;52.694;6.214;2022-07-23T10:14:24;1.05;;;0.80;;
57389;SDS011;43217;52.694;6.214;2022-07-23T10:16:51;3.75;;;0.60;;
57389;SDS011;43217;52.694;6.214;2022-07-23T10:19:17;0.93;;;0.80;;
57389;SDS011;43217;52.694;6.214;2022-07-23T10:21:48;1.92;;;1.10;;
57389;SDS011;43217;52.694;6.214;2022-07-23T10:27:30;1.58;;;0.82;;
57389;SDS011;43217;52.694;6.214;2022-07-23T10:41:30;1.35;;;1.25;;
57389;SDS011;43217;52.694;6.214;2022-07-23T10:47:03;1.00;;;1.00;;
57389;SDS011;43217;52.694;6.214;2022-07-23T10:49:32;1.05;;;0.98;;
57389;SDS011;43217;52.694;6.214;2022-07-23T10:52:16;2.38;;;1.00;;
57389;SDS011;43217;52.694;6.214;2022-07-23T10:57:27;1.75;;;1.10;;
57389;SDS011;43217;52.694;6.214;2022-07-23T11:02:26;1.33;;;1.05;;
57389;SDS011;43217;52.694;6.214;2022-07-23T11:04:54;2.15;;;1.10;;
57389;SDS011;43217;52.694;6.214;2022-07-23T11:07:25;1.25;;;1.13;;
57389;SDS011;43217;52.694;6.214;2022-07-23T11:09:50;2.22;;;1.30;;
57389;SDS011;43217;52.694;6.214;2022-07-23T11:17:31;1.13;;;1.02;;
57389;SDS011;43217;52.694;6.214;2022-07-23T11:22:39;1.42;;;1.30;;
57389;SDS011;43217;52.694;6.214;2022-07-23T11:25:05;1.20;;;1.10;;
57389;SDS011;43217;52.694;6.214;2022-07-23T11:30:07;1.95;;;1.23;;
57389;SDS011;43217;52.694;6.214;2022-07-23T11:32:35;1.38;;;1.27;;
57389;SDS011;43217;52.694;6.214;2022-07-23T11:35:18;2.20;;;1.50;;
57389;SDS011;43217;52.694;6.214;2022-07-23T11:37:48;1.05;;;0.93;;
57389;SDS011;43217;52.694;6.214;2022-07-23T11:40:15;0.98;;;0.98;;
57389;SDS011;43217;52.694;6.214;2022-07-23T11:45:20;1.23;;;1.13;;
57389;SDS011;43217;52.694;6.214;2022-07-23T11:47:46;2.33;;;1.30;;
57389;SDS011;43217;52.694;6.214;2022-07-23T11:50:12;1.30;;;1.10;;
57389;SDS011;43217;52.694;6.214;2022-07-23T11:52:40;3.03;;;1.47;;
57389;SDS011;43217;52.694;6.214;2022-07-23T11:55:07;2.08;;;1.40;;
57389;SDS011;43217;52.694;6.214;2022-07-23T11:57:35;1.63;;;1.30;;
57389;SDS011;43217;52.694;6.214;2022-07-23T12:00:13;5.07;;;1.40;;
57389;SDS011;43217;52.694;6.214;2022-07-23T12:02:42;1.45;;;1.30;;
57389;SDS011;43217;52.694;6.214;2022-07-23T12:05:17;1.73;;;1.33;;
57389;SDS011;43217;52.694;6.214;2022-07-23T12:07:48;1.95;;;1.20;;
57389;SDS011;43217;52.694;6.214;2022-07-23T12:10:17;1.20;;;1.10;;
57389;SDS011;43217;52.694;6.214;2022-07-23T12:15:11;1.43;;;1.30;;
57389;SDS011;43217;52.694;6.214;2022-07-23T12:17:39;1.75;;;1.20;;
57389;SDS011;43217;52.694;6.214;2022-07-23T12:20:08;1.17;;;1.10;;
57389;SDS011;43217;52.694;6.214;2022-07-23T12:22:55;1.25;;;1.10;;
57389;SDS011;43217;52.694;6.214;2022-07-23T12:28:00;1.50;;;1.40;;
57389;SDS011;43217;52.694;6.214;2022-07-23T12:30:28;1.40;;;1.30;;
57389;SDS011;43217;52.694;6.214;2022-07-23T12:32:57;1.77;;;1.55;;
57389;SDS011;43217;52.694;6.214;2022-07-23T12:35:23;1.27;;;1.25;;
57389;SDS011;43217;52.694;6.214;2022-07-23T12:37:59;1.40;;;1.20;;
57389;SDS011;43217;52.694;6.214;2022-07-23T12:40:28;1.90;;;1.27;;
57389;SDS011;43217;52.694;6.214;2022-07-23T12:43:06;2.20;;;1.20;;
57389;SDS011;43217;52.694;6.214;2022-07-23T12:45:44;1.55;;;1.33;;
57389;SDS011;43217;52.694;6.214;2022-07-23T12:48:15;1.30;;;1.20;;
57389;SDS011;43217;52.694;6.214;2022-07-23T12:53:47;2.15;;;1.45;;
57389;SDS011;43217;52.694;6.214;2022-07-23T12:56:15;2.05;;;1.40;;
57389;SDS011;43217;52.694;6.214;2022-07-23T13:04:06;1.83;;;1.40;;
57389;SDS011;43217;52.694;6.214;2022-07-23T13:09:07;1.33;;;1.23;;
57389;SDS011;43217;52.694;6.214;2022-07-23T13:11:34;1.27;;;1.17;;
57389;SDS011;43217;52.694;6.214;2022-07-23T13:14:01;1.40;;;1.30;;
57389;SDS011;43217;52.694;6.214;2022-07-23T13:16:27;1.48;;;1.13;;
57389;SDS011;43217;52.694;6.214;2022-07-23T13:18:54;2.10;;;1.30;;
57389;SDS011;43217;52.694;6.214;2022-07-23T13:21:21;1.17;;;1.17;;
57389;SDS011;43217;52.694;6.214;2022-07-23T13:23:47;2.97;;;1.40;;
57389;SDS011;43217;52.694;6.214;2022-07-23T13:26:13;1.48;;;1.13;;
57389;SDS011;43217;52.694;6.214;2022-07-23T13:28:39;0.90;;;0.90;;
57389;SDS011;43217;52.694;6.214;2022-07-23T13:31:05;1.42;;;1.27;;
57389;SDS011;43217;52.694;6.214;2022-07-23T13:33:30;1.38;;;1.27;;
57389;SDS011;43217;52.694;6.214;2022-07-23T13:35:56;1.10;;;1.10;;
57389;SDS011;43217;52.694;6.214;2022-07-23T13:38:22;1.60;;;0.90;;
57389;SDS011;43217;52.694;6.214;2022-07-23T13:40:49;1.38;;;1.25;;
57389;SDS011;43217;52.694;6.214;2022-07-23T13:43:16;1.48;;;1.23;;
57389;SDS011;43217;52.694;6.214;2022-07-23T13:45:43;1.25;;;1.17;;
57389;SDS011;43217;52.694;6.214;2022-07-23T13:48:09;1.17;;;1.08;;
57389;SDS011;43217;52.694;6.214;2022-07-23T13:50:36;1.30;;;1.20;;
57389;SDS011;43217;52.694;6.214;2022-07-23T13:53:14;1.30;;;1.20;;
57389;SDS011;43217;52.694;6.214;2022-07-23T13:55:47;1.20;;;1.10;;
57389;SDS011;43217;52.694;6.214;2022-07-23T13:58:15;1.23;;;1.13;;
57389;SDS011;43217;52.694;6.214;2022-07-23T14:00:42;1.13;;;1.02;;
57389;SDS011;43217;52.694;6.214;2022-07-23T14:03:10;1.65;;;1.13;;
57389;SDS011;43217;52.694;6.214;2022-07-23T14:05:36;1.20;;;1.10;;
57389;SDS011;43217;52.694;6.214;2022-07-23T14:08:02;1.60;;;1.13;;
57389;SDS011;43217;52.694;6.214;2022-07-23T14:10:28;1.70;;;1.60;;
57389;SDS011;43217;52.694;6.214;2022-07-23T14:12:54;1.83;;;1.50;;
57389;SDS011;43217;52.694;6.214;2022-07-23T14:15:21;2.45;;;1.30;;
57389;SDS011;43217;52.694;6.214;2022-07-23T14:17:48;1.83;;;1.65;;
57389;SDS011;43217;52.694;6.214;2022-07-23T14:20:14;2.67;;;1.40;;
57389;SDS011;43217;52.694;6.214;2022-07-23T14:22:40;1.30;;;1.20;;
57389;SDS011;43217;52.694;6.214;2022-07-23T14:25:06;2.28;;;1.50;;
57389;SDS011;43217;52.694;6.214;2022-07-23T14:29:59;2.30;;;1.50;;
57389;SDS011;43217;52.694;6.214;2022-07-23T14:32:25;2.03;;;1.20;;
57389;SDS011;43217;52.694;6.214;2022-07-23T14:34:51;1.20;;;1.20;;
57389;SDS011;43217;52.694;6.214;2022-07-23T14:37:17;1.30;;;1.20;;
57389;SDS011;43217;52.694;6.214;2022-07-23T14:39:43;2.00;;;1.20;;
57389;SDS011;43217;52.694;6.214;2022-07-23T14:42:09;1.50;;;1.27;;
57389;SDS011;43217;52.694;6.214;2022-07-23T14:44:36;1.35;;;1.23;;
57389;SDS011;43217;52.694;6.214;2022-07-23T14:47:05;1.48;;;1.30;;
57389;SDS011;43217;52.694;6.214;2022-07-23T14:49:31;1.83;;;1.35;;
57389;SDS011;43217;52.694;6.214;2022-07-23T14:52:00;1.52;;;1.08;;
57389;SDS011;43217;52.694;6.214;2022-07-23T14:54:26;1.90;;;1.33;;
57389;SDS011;43217;52.694;6.214;2022-07-23T14:59:29;1.40;;;1.30;;
57389;SDS011;43217;52.694;6.214;2022-07-23T15:01:55;1.92;;;1.25;;
57389;SDS011;43217;52.694;6.214;2022-07-23T15:04:21;1.35;;;1.25;;
57389;SDS011;43217;52.694;6.214;2022-07-23T15:06:47;1.60;;;1.50;;
57389;SDS011;43217;52.694;6.214;2022-07-23T15:09:13;2.33;;;1.60;;
57389;SDS011;43217;52.694;6.214;2022-07-23T15:11:39;2.45;;;1.50;;
57389;SDS011;43217;52.694;6.214;2022-07-23T15:14:05;2.88;;;1.38;;
57389;SDS011;43217;52.694;6.214;2022-07-23T15:16:31;1.52;;;1.42;;
57389;SDS011;43217;52.694;6.214;2022-07-23T15:18:57;1.67;;;1.50;;
57389;SDS011;43217;52.694;6.214;2022-07-23T15:21:22;1.80;;;1.52;;
57389;SDS011;43217;52.694;6.214;2022-07-23T15:23:48;3.67;;;1.80;;
57389;SDS011;43217;52.694;6.214;2022-07-23T15:26:14;1.48;;;1.25;;
57389;SDS011;43217;52.694;6.214;2022-07-23T15:28:40;1.42;;;1.15;;
57389;SDS011;43217;52.694;6.214;2022-07-23T15:31:07;2.30;;;1.50;;
57389;SDS011;43217;52.694;6.214;2022-07-23T15:33:33;1.77;;;1.38;;
57389;SDS011;43217;52.694;6.214;2022-07-23T15:35:58;1.60;;;1.50;;
57389;SDS011;43217;52.694;6.214;2022-07-23T15:38:25;5.22;;;1.80;;
57389;SDS011;43217;52.694;6.214;2022-07-23T15:40:52;1.85;;;1.75;;
57389;SDS011;43217;52.694;6.214;2022-07-23T15:43:19;1.65;;;1.40;;
57389;SDS011;43217;52.694;6.214;2022-07-23T15:45:45;1.35;;;1.20;;
57389;SDS011;43217;52.694;6.214;2022-07-23T15:48:11;1.73;;;1.60;;
57389;SDS011;43217;52.694;6.214;2022-07-23T15:50:37;1.40;;;1.30;;
57389;SDS011;43217;52.694;6.214;2022-07-23T15:53:03;1.48;;;1.30;;
57389;SDS011;43217;52.694;6.214;2022-07-23T15:55:28;2.67;;;2.53;;
57389;SDS011;43217;52.694;6.214;2022-07-23T15:57:54;1.38;;;1.27;;